Portada
METAR-TAF:

METAR-TAF

Aeroports :

L'Havana, Cuba

latitud: 22-59N, longitud: 082-24W, altitud: 59 m

Observació

L'informe es va fer fa 49 minuts, a les 00:55 UTC
Vent 2 kt del Est
Temperatura 23°C
Humitat 89%
Pressió 1016 hPa
Visibilitat: 9000 m
Escasses núvols a una alçada de 2500 ft

METAR: MUHA 230055Z 09002KT 9000 FEW025 23/21 Q1016

Hora: 21:44 (01:44 UTC)

Pronòstic

L'informe es va fer fa 2 hores i 44 minuts, a les 23:00 UTC
Pronòstic vàlid del 23 a les 00 UTC al 23 a les 24 UTC
Vent 3 kt amb direcció variable
Visibilitat: 9000 m
Escasses núvols a una alçada de 3000 ft

TAF: MUHA 222300Z 2300/2324 VRB03KT 9000 FEW030

Observacions i pronòstics meteorològics de més de 4000 aeroports (METAR i TAF).

Les estacions disponibles són els punts grocs i vermells al mapa.

Posi el ratolí al punt desitjat per veure el nom de l'estació.

Feu clic per veure les observacions i els pronòstics meteorològics.

Per canviar el mapa: feu clic els botons verds amb una creu de color negre per apropar; al botó verd amb un guió per allunyar la imatge; o en les fletxes verdes per a mapes adjacents.


METAR-TAF: